VCU/West, Virginia
Current Conditions -  °F | °C
As of 5:54 AM on Friday 28 Nov 2014 (Local Time) from KRIC Reporting Station
Clear Clear  
Wind Chill: 25°   Ceiling: Unl
Heat Index: 30°   Visibility: 10mi
Dew Point: 24°   Wind: 5mph
Humidity: 79%   Direction: 310°NW
Pressure: 30.27"   Gusts: NA
Location:  37.549°N, 77.4581°W
Report Text: KRIC 281054Z 31004KT 10SM CLR M01/M04 A3027 RMK AO2 SLP258 T10111044
Loading
Personal Weather Stations






























Interactive Weather Map New forecast layout! Learn more

10-Day Weather Forecast

Advertisements
Track Severe Weather on mobile